sensor_id;sensor_type;location;lat;lon;timestamp;pressure;altitude;pressure_sealevel;temperature;humidity
141;BME280;65;48.778;9.160;2023-07-31T00:02:45;98569.84;;;15.77;88.63
141;BME280;65;48.778;9.160;2023-07-31T00:05:30;98561.38;;;15.72;89.58
141;BME280;65;48.778;9.160;2023-07-31T00:08:16;98564.03;;;15.61;90.71
141;BME280;65;48.778;9.160;2023-07-31T00:11:02;98564.44;;;15.55;92.32
141;BME280;65;48.778;9.160;2023-07-31T00:13:47;98568.03;;;15.66;90.55
141;BME280;65;48.778;9.160;2023-07-31T00:16:33;98563.34;;;15.57;91.99
141;BME280;65;48.778;9.160;2023-07-31T00:19:19;98564.66;;;15.51;93.45
141;BME280;65;48.778;9.160;2023-07-31T00:22:05;98572.78;;;15.50;92.65
141;BME280;65;48.778;9.160;2023-07-31T00:24:51;98569.75;;;15.55;92.27
141;BME280;65;48.778;9.160;2023-07-31T00:27:36;98564.03;;;15.61;92.00
141;BME280;65;48.778;9.160;2023-07-31T00:30:22;98560.28;;;15.74;89.15
141;BME280;65;48.778;9.160;2023-07-31T00:33:10;98561.38;;;15.94;88.14
141;BME280;65;48.778;9.160;2023-07-31T00:35:56;98551.91;;;16.01;88.39
141;BME280;65;48.778;9.160;2023-07-31T00:38:42;98552.63;;;16.03;87.18
141;BME280;65;48.778;9.160;2023-07-31T00:41:27;98552.28;;;16.08;87.17
141;BME280;65;48.778;9.160;2023-07-31T00:44:13;98548.75;;;16.07;89.22
141;BME280;65;48.778;9.160;2023-07-31T00:46:59;98551.41;;;16.07;87.00
141;BME280;65;48.778;9.160;2023-07-31T00:49:45;98542.81;;;16.04;86.87
141;BME280;65;48.778;9.160;2023-07-31T00:52:31;98545.13;;;15.97;88.53
141;BME280;65;48.778;9.160;2023-07-31T00:55:17;98553.84;;;15.88;90.02
141;BME280;65;48.778;9.160;2023-07-31T00:58:03;98555.44;;;15.79;91.80
141;BME280;65;48.778;9.160;2023-07-31T01:00:49;98556.75;;;15.63;92.93
141;BME280;65;48.778;9.160;2023-07-31T01:03:35;98565.16;;;15.45;94.40
141;BME280;65;48.778;9.160;2023-07-31T01:06:38;98562.47;;;15.34;96.48
141;BME280;65;48.778;9.160;2023-07-31T01:09:30;98570.81;;;15.30;96.55
141;BME280;65;48.778;9.160;2023-07-31T01:12:20;98560.75;;;15.22;96.91
141;BME280;65;48.778;9.160;2023-07-31T01:15:07;98556.97;;;15.13;98.68
141;BME280;65;48.778;9.160;2023-07-31T01:17:56;98550.91;;;15.11;97.60
141;BME280;65;48.778;9.160;2023-07-31T01:20:42;98552.59;;;15.12;97.46
141;BME280;65;48.778;9.160;2023-07-31T01:26:34;98536.88;;;15.09;98.42
141;BME280;65;48.778;9.160;2023-07-31T01:29:37;98533.41;;;14.96;99.83
141;BME280;65;48.778;9.160;2023-07-31T01:32:24;98534.94;;;14.87;100.00
141;BME280;65;48.778;9.160;2023-07-31T01:35:11;98538.94;;;14.82;100.00
141;BME280;65;48.778;9.160;2023-07-31T01:37:56;98538.75;;;14.72;100.00
141;BME280;65;48.778;9.160;2023-07-31T01:40:42;98529.53;;;14.65;100.00
141;BME280;65;48.778;9.160;2023-07-31T01:43:30;98532.66;;;14.59;100.00
141;BME280;65;48.778;9.160;2023-07-31T01:46:15;98525.75;;;14.57;100.00
141;BME280;65;48.778;9.160;2023-07-31T01:49:01;98526.38;;;14.60;100.00
141;BME280;65;48.778;9.160;2023-07-31T01:51:47;98520.31;;;14.58;100.00
141;BME280;65;48.778;9.160;2023-07-31T01:54:32;98519.72;;;14.54;100.00
141;BME280;65;48.778;9.160;2023-07-31T01:57:32;98514.50;;;14.53;100.00
141;BME280;65;48.778;9.160;2023-07-31T02:00:18;98510.66;;;14.57;100.00
141;BME280;65;48.778;9.160;2023-07-31T02:03:03;98511.66;;;14.67;100.00
141;BME280;65;48.778;9.160;2023-07-31T02:05:50;98517.13;;;14.77;100.00
141;BME280;65;48.778;9.160;2023-07-31T02:08:35;98509.84;;;15.03;99.35
141;BME280;65;48.778;9.160;2023-07-31T02:11:21;98505.78;;;15.21;98.52
141;BME280;65;48.778;9.160;2023-07-31T02:14:07;98505.69;;;15.34;97.55
141;BME280;65;48.778;9.160;2023-07-31T02:16:52;98496.75;;;15.46;96.45
141;BME280;65;48.778;9.160;2023-07-31T02:19:38;98491.16;;;15.49;95.82
141;BME280;65;48.778;9.160;2023-07-31T02:22:24;98488.63;;;15.47;96.55
141;BME280;65;48.778;9.160;2023-07-31T02:25:10;98489.22;;;15.51;95.79
141;BME280;65;48.778;9.160;2023-07-31T02:27:55;98478.75;;;15.61;94.08
141;BME280;65;48.778;9.160;2023-07-31T02:30:44;98482.16;;;15.63;93.57
141;BME280;65;48.778;9.160;2023-07-31T02:33:31;98484.38;;;15.56;95.19
141;BME280;65;48.778;9.160;2023-07-31T02:36:17;98470.47;;;15.52;93.77
141;BME280;65;48.778;9.160;2023-07-31T02:39:03;98473.53;;;15.59;93.31
141;BME280;65;48.778;9.160;2023-07-31T02:41:48;98472.03;;;15.44;95.39
141;BME280;65;48.778;9.160;2023-07-31T02:44:34;98477.72;;;15.50;93.56
141;BME280;65;48.778;9.160;2023-07-31T02:47:20;98473.59;;;15.35;96.13
141;BME280;65;48.778;9.160;2023-07-31T02:50:06;98467.44;;;15.35;94.32
141;BME280;65;48.778;9.160;2023-07-31T02:52:52;98463.56;;;15.28;95.62
141;BME280;65;48.778;9.160;2023-07-31T02:55:37;98458.47;;;15.13;98.02
141;BME280;65;48.778;9.160;2023-07-31T02:58:27;98461.47;;;15.09;96.54
141;BME280;65;48.778;9.160;2023-07-31T03:01:13;98456.16;;;15.09;99.79
141;BME280;65;48.778;9.160;2023-07-31T03:03:59;98445.34;;;14.99;98.85
141;BME280;65;48.778;9.160;2023-07-31T03:06:45;98454.88;;;14.91;100.00
141;BME280;65;48.778;9.160;2023-07-31T03:09:31;98463.09;;;14.87;100.00
141;BME280;65;48.778;9.160;2023-07-31T03:12:16;98463.81;;;14.78;100.00
141;BME280;65;48.778;9.160;2023-07-31T03:15:02;98462.50;;;14.84;100.00
141;BME280;65;48.778;9.160;2023-07-31T03:17:48;98458.84;;;14.74;100.00
141;BME280;65;48.778;9.160;2023-07-31T03:20:34;98469.50;;;14.85;99.46
141;BME280;65;48.778;9.160;2023-07-31T03:23:19;98459.63;;;14.98;97.00
141;BME280;65;48.778;9.160;2023-07-31T03:26:07;98460.75;;;15.07;97.03
141;BME280;65;48.778;9.160;2023-07-31T03:28:53;98452.88;;;15.05;96.08
141;BME280;65;48.778;9.160;2023-07-31T03:31:38;98456.50;;;15.04;97.07
141;BME280;65;48.778;9.160;2023-07-31T03:34:24;98459.72;;;14.97;98.22
141;BME280;65;48.778;9.160;2023-07-31T03:37:10;98455.75;;;15.02;96.44
141;BME280;65;48.778;9.160;2023-07-31T03:39:55;98453.50;;;15.20;93.96
141;BME280;65;48.778;9.160;2023-07-31T03:42:41;98457.50;;;15.26;93.49
141;BME280;65;48.778;9.160;2023-07-31T03:45:27;98462.34;;;15.32;94.30
141;BME280;65;48.778;9.160;2023-07-31T03:48:14;98465.63;;;15.35;95.53
141;BME280;65;48.778;9.160;2023-07-31T03:51:00;98464.16;;;15.42;93.29
141;BME280;65;48.778;9.160;2023-07-31T03:53:46;98465.69;;;15.69;89.65
141;BME280;65;48.778;9.160;2023-07-31T03:56:32;98470.50;;;15.75;88.40
141;BME280;65;48.778;9.160;2023-07-31T03:59:18;98467.06;;;16.06;85.53
141;BME280;65;48.778;9.160;2023-07-31T04:02:03;98461.59;;;16.08;86.17
141;BME280;65;48.778;9.160;2023-07-31T04:04:49;98468.13;;;16.15;84.94
141;BME280;65;48.778;9.160;2023-07-31T04:07:35;98462.41;;;16.31;84.98
141;BME280;65;48.778;9.160;2023-07-31T04:10:20;98468.44;;;16.44;83.91
141;BME280;65;48.778;9.160;2023-07-31T04:13:06;98470.22;;;16.55;82.00
141;BME280;65;48.778;9.160;2023-07-31T04:15:52;98463.97;;;16.77;79.34
141;BME280;65;48.778;9.160;2023-07-31T04:18:38;98453.91;;;16.80;80.01
141;BME280;65;48.778;9.160;2023-07-31T04:21:25;98461.78;;;16.82;80.27
141;BME280;65;48.778;9.160;2023-07-31T04:24:10;98461.78;;;16.82;79.96
141;BME280;65;48.778;9.160;2023-07-31T04:26:56;98443.81;;;16.84;80.01
141;BME280;65;48.778;9.160;2023-07-31T04:29:42;98443.66;;;16.85;81.60
141;BME280;65;48.778;9.160;2023-07-31T04:32:29;98441.66;;;16.98;78.94
141;BME280;65;48.778;9.160;2023-07-31T04:35:15;98440.28;;;17.04;80.73
141;BME280;65;48.778;9.160;2023-07-31T04:38:01;98437.72;;;17.23;76.95
141;BME280;65;48.778;9.160;2023-07-31T04:40:48;98440.97;;;17.27;78.01
141;BME280;65;48.778;9.160;2023-07-31T04:43:34;98446.03;;;17.30;78.02
141;BME280;65;48.778;9.160;2023-07-31T04:46:20;98448.91;;;17.38;77.99
141;BME280;65;48.778;9.160;2023-07-31T04:49:06;98446.59;;;17.54;75.40
141;BME280;65;48.778;9.160;2023-07-31T04:51:51;98452.59;;;17.67;75.07
141;BME280;65;48.778;9.160;2023-07-31T04:54:37;98440.53;;;17.83;74.61
141;BME280;65;48.778;9.160;2023-07-31T04:57:23;98446.03;;;17.81;76.50
141;BME280;65;48.778;9.160;2023-07-31T05:00:09;98447.00;;;17.80;77.45
141;BME280;65;48.778;9.160;2023-07-31T05:02:54;98440.31;;;17.65;77.46
141;BME280;65;48.778;9.160;2023-07-31T05:05:40;98443.97;;;17.64;75.93
141;BME280;65;48.778;9.160;2023-07-31T05:08:26;98436.94;;;17.63;77.14
141;BME280;65;48.778;9.160;2023-07-31T05:11:11;98437.75;;;17.54;77.56
141;BME280;65;48.778;9.160;2023-07-31T05:13:57;98435.50;;;17.59;76.66
141;BME280;65;48.778;9.160;2023-07-31T05:16:43;98428.16;;;17.51;77.67
141;BME280;65;48.778;9.160;2023-07-31T05:19:29;98430.66;;;17.43;77.50
141;BME280;65;48.778;9.160;2023-07-31T05:22:14;98428.03;;;17.53;76.94
141;BME280;65;48.778;9.160;2023-07-31T05:25:00;98434.78;;;17.57;77.79
141;BME280;65;48.778;9.160;2023-07-31T05:27:46;98438.25;;;17.68;77.25
141;BME280;65;48.778;9.160;2023-07-31T05:30:31;98444.56;;;17.67;77.68
141;BME280;65;48.778;9.160;2023-07-31T05:33:17;98440.66;;;17.72;78.52
141;BME280;65;48.778;9.160;2023-07-31T05:36:03;98432.56;;;17.92;75.47
141;BME280;65;48.778;9.160;2023-07-31T05:38:48;98443.59;;;18.28;72.66
141;BME280;65;48.778;9.160;2023-07-31T05:41:35;98439.81;;;18.40;72.51
141;BME280;65;48.778;9.160;2023-07-31T05:44:21;98440.69;;;18.60;71.03
141;BME280;65;48.778;9.160;2023-07-31T05:47:06;98440.59;;;18.61;70.70
141;BME280;65;48.778;9.160;2023-07-31T05:49:52;98438.72;;;18.81;70.13
141;BME280;65;48.778;9.160;2023-07-31T05:52:38;98435.06;;;18.82;70.01
141;BME280;65;48.778;9.160;2023-07-31T05:55:24;98427.59;;;18.86;72.63
141;BME280;65;48.778;9.160;2023-07-31T05:58:12;98428.00;;;18.91;71.35
141;BME280;65;48.778;9.160;2023-07-31T06:00:58;98425.38;;;19.38;68.91
141;BME280;65;48.778;9.160;2023-07-31T06:03:43;98432.41;;;19.85;64.93
141;BME280;65;48.778;9.160;2023-07-31T06:06:29;98424.63;;;20.10;64.88
141;BME280;65;48.778;9.160;2023-07-31T06:09:15;98426.84;;;20.14;63.30
141;BME280;65;48.778;9.160;2023-07-31T06:12:01;98435.66;;;20.07;61.92
141;BME280;65;48.778;9.160;2023-07-31T06:14:46;98434.56;;;20.00;64.11
141;BME280;65;48.778;9.160;2023-07-31T06:17:32;98427.66;;;20.25;61.93
141;BME280;65;48.778;9.160;2023-07-31T06:20:18;98426.00;;;20.41;62.81
141;BME280;65;48.778;9.160;2023-07-31T06:23:03;98423.09;;;20.52;61.60
141;BME280;65;48.778;9.160;2023-07-31T06:25:49;98431.59;;;20.66;60.80
141;BME280;65;48.778;9.160;2023-07-31T06:28:35;98433.84;;;20.52;60.22
141;BME280;65;48.778;9.160;2023-07-31T06:31:20;98425.59;;;20.72;59.18
141;BME280;65;48.778;9.160;2023-07-31T06:34:08;98430.88;;;20.99;59.80
141;BME280;65;48.778;9.160;2023-07-31T06:37:22;98419.97;;;21.44;58.50
141;BME280;65;48.778;9.160;2023-07-31T06:40:08;98428.56;;;21.04;57.00
141;BME280;65;48.778;9.160;2023-07-31T06:42:54;98437.47;;;21.05;59.28
141;BME280;65;48.778;9.160;2023-07-31T06:45:40;98433.78;;;21.06;57.73
141;BME280;65;48.778;9.160;2023-07-31T06:48:25;98433.19;;;21.64;55.75
141;BME280;65;48.778;9.160;2023-07-31T06:51:11;98437.91;;;22.62;52.76
141;BME280;65;48.778;9.160;2023-07-31T06:53:58;98440.31;;;23.14;50.46
141;BME280;65;48.778;9.160;2023-07-31T06:56:43;98433.50;;;23.43;50.07
141;BME280;65;48.778;9.160;2023-07-31T06:59:29;98440.16;;;24.80;46.98
141;BME280;65;48.778;9.160;2023-07-31T07:02:15;98445.28;;;24.13;47.20
141;BME280;65;48.778;9.160;2023-07-31T07:05:00;98432.69;;;23.10;50.63
141;BME280;65;48.778;9.160;2023-07-31T07:07:48;98447.50;;;22.73;52.11
141;BME280;65;48.778;9.160;2023-07-31T07:10:34;98438.78;;;22.95;54.12
141;BME280;65;48.778;9.160;2023-07-31T07:13:20;98434.53;;;23.33;48.56
141;BME280;65;48.778;9.160;2023-07-31T07:16:07;98436.91;;;24.00;47.19
141;BME280;65;48.778;9.160;2023-07-31T07:18:52;98429.34;;;24.80;44.69
141;BME280;65;48.778;9.160;2023-07-31T07:21:38;98431.16;;;25.48;43.71
141;BME280;65;48.778;9.160;2023-07-31T07:24:24;98416.19;;;26.11;42.29
141;BME280;65;48.778;9.160;2023-07-31T07:27:09;98416.63;;;26.30;42.28
141;BME280;65;48.778;9.160;2023-07-31T07:29:55;98409.69;;;26.42;40.58
141;BME280;65;48.778;9.160;2023-07-31T07:32:41;98407.66;;;25.11;43.75
141;BME280;65;48.778;9.160;2023-07-31T07:35:27;98420.59;;;23.85;46.61
141;BME280;65;48.778;9.160;2023-07-31T07:38:14;98416.00;;;23.30;48.37
141;BME280;65;48.778;9.160;2023-07-31T07:41:00;98412.31;;;23.07;49.64
141;BME280;65;48.778;9.160;2023-07-31T07:43:46;98405.97;;;23.63;50.02
141;BME280;65;48.778;9.160;2023-07-31T07:46:41;98417.38;;;23.90;46.23
141;BME280;65;48.778;9.160;2023-07-31T07:49:26;98411.34;;;23.80;47.66
141;BME280;65;48.778;9.160;2023-07-31T07:52:12;98414.34;;;25.01;45.42
141;BME280;65;48.778;9.160;2023-07-31T07:54:58;98404.03;;;26.79;40.75
141;BME280;65;48.778;9.160;2023-07-31T07:57:43;98415.03;;;26.35;40.77
141;BME280;65;48.778;9.160;2023-07-31T08:00:30;98393.66;;;26.26;40.85
141;BME280;65;48.778;9.160;2023-07-31T08:03:16;98404.66;;;27.24;38.30
141;BME280;65;48.778;9.160;2023-07-31T08:06:02;98406.38;;;28.42;37.90
141;BME280;65;48.778;9.160;2023-07-31T08:08:48;98388.69;;;29.45;37.69
141;BME280;65;48.778;9.160;2023-07-31T08:11:34;98383.63;;;29.36;37.07
141;BME280;65;48.778;9.160;2023-07-31T08:14:20;98390.94;;;28.82;34.64
141;BME280;65;48.778;9.160;2023-07-31T08:17:05;98401.81;;;28.56;37.51
141;BME280;65;48.778;9.160;2023-07-31T08:19:51;98394.97;;;29.00;35.39
141;BME280;65;48.778;9.160;2023-07-31T08:22:37;98391.38;;;29.32;34.64
141;BME280;65;48.778;9.160;2023-07-31T08:25:22;98386.22;;;30.08;33.10
141;BME280;65;48.778;9.160;2023-07-31T08:28:08;98390.00;;;30.83;32.85
141;BME280;65;48.778;9.160;2023-07-31T08:30:54;98386.66;;;31.06;31.95
141;BME280;65;48.778;9.160;2023-07-31T08:33:40;98374.78;;;30.31;33.78
141;BME280;65;48.778;9.160;2023-07-31T08:36:26;98379.69;;;27.70;37.30
141;BME280;65;48.778;9.160;2023-07-31T08:39:11;98381.19;;;27.17;37.93
141;BME280;65;48.778;9.160;2023-07-31T08:41:58;98385.88;;;26.01;40.12
141;BME280;65;48.778;9.160;2023-07-31T08:44:46;98363.47;;;25.63;42.15
141;BME280;65;48.778;9.160;2023-07-31T08:47:32;98363.84;;;26.26;40.42
141;BME280;65;48.778;9.160;2023-07-31T08:50:20;98358.38;;;27.67;38.00
141;BME280;65;48.778;9.160;2023-07-31T08:53:06;98357.00;;;26.94;39.02
141;BME280;65;48.778;9.160;2023-07-31T08:55:52;98361.56;;;26.65;40.83
141;BME280;65;48.778;9.160;2023-07-31T08:58:40;98371.66;;;27.21;38.51
141;BME280;65;48.778;9.160;2023-07-31T09:01:28;98369.22;;;26.40;41.47
141;BME280;65;48.778;9.160;2023-07-31T09:04:16;98362.97;;;26.04;40.97
141;BME280;65;48.778;9.160;2023-07-31T09:07:05;98354.31;;;25.20;42.12
141;BME280;65;48.778;9.160;2023-07-31T09:09:51;98351.78;;;25.77;40.55
141;BME280;65;48.778;9.160;2023-07-31T09:12:37;98355.00;;;25.66;41.32
141;BME280;65;48.778;9.160;2023-07-31T09:15:23;98339.75;;;27.01;39.83
141;BME280;65;48.778;9.160;2023-07-31T09:18:10;98342.19;;;27.93;37.78
141;BME280;65;48.778;9.160;2023-07-31T09:21:05;98344.03;;;25.30;43.91
141;BME280;65;48.778;9.160;2023-07-31T09:23:51;98360.19;;;25.09;45.14
141;BME280;65;48.778;9.160;2023-07-31T09:26:39;98359.22;;;24.79;43.21
141;BME280;65;48.778;9.160;2023-07-31T09:29:26;98351.75;;;24.12;44.26
141;BME280;65;48.778;9.160;2023-07-31T09:32:16;98348.91;;;23.27;47.60
141;BME280;65;48.778;9.160;2023-07-31T09:35:13;98350.94;;;23.25;48.18
141;BME280;65;48.778;9.160;2023-07-31T09:38:04;98347.94;;;23.12;49.29
141;BME280;65;48.778;9.160;2023-07-31T09:40:50;98338.34;;;23.18;52.15
141;BME280;65;48.778;9.160;2023-07-31T09:43:37;98327.41;;;22.95;50.39
141;BME280;65;48.778;9.160;2023-07-31T09:46:26;98334.63;;;23.02;49.88
141;BME280;65;48.778;9.160;2023-07-31T09:49:14;98320.97;;;23.67;48.46
141;BME280;65;48.778;9.160;2023-07-31T09:51:59;98311.34;;;24.87;44.94
141;BME280;65;48.778;9.160;2023-07-31T09:54:45;98304.47;;;27.70;42.88
141;BME280;65;48.778;9.160;2023-07-31T09:57:31;98287.94;;;29.19;35.24
141;BME280;65;48.778;9.160;2023-07-31T10:00:18;98296.34;;;28.58;36.62
141;BME280;65;48.778;9.160;2023-07-31T10:03:07;98302.59;;;26.53;39.91
141;BME280;65;48.778;9.160;2023-07-31T10:09:34;98278.28;;;26.59;40.33
141;BME280;65;48.778;9.160;2023-07-31T10:12:21;98281.00;;;28.11;38.32
141;BME280;65;48.778;9.160;2023-07-31T10:15:09;98281.75;;;27.78;36.64
141;BME280;65;48.778;9.160;2023-07-31T10:17:55;98281.19;;;26.15;41.02
141;BME280;65;48.778;9.160;2023-07-31T10:20:41;98285.66;;;24.69;43.38
141;BME280;65;48.778;9.160;2023-07-31T10:23:27;98281.34;;;24.14;44.60
141;BME280;65;48.778;9.160;2023-07-31T10:26:17;98277.75;;;23.37;49.12
141;BME280;65;48.778;9.160;2023-07-31T10:29:05;98275.72;;;23.78;46.69
141;BME280;65;48.778;9.160;2023-07-31T10:31:52;98265.50;;;23.26;48.48
141;BME280;65;48.778;9.160;2023-07-31T10:34:39;98264.69;;;23.87;47.74
141;BME280;65;48.778;9.160;2023-07-31T10:37:28;98250.59;;;24.00;50.32
141;BME280;65;48.778;9.160;2023-07-31T10:40:19;98257.31;;;24.79;44.74
141;BME280;65;48.778;9.160;2023-07-31T10:43:07;98254.31;;;24.45;43.24
141;BME280;65;48.778;9.160;2023-07-31T10:45:56;98255.16;;;24.98;44.40
141;BME280;65;48.778;9.160;2023-07-31T10:48:42;98250.25;;;24.78;44.39
141;BME280;65;48.778;9.160;2023-07-31T10:51:35;98248.06;;;24.44;44.70
141;BME280;65;48.778;9.160;2023-07-31T10:54:20;98264.81;;;24.40;44.81
141;BME280;65;48.778;9.160;2023-07-31T10:57:22;98262.69;;;25.17;44.18
141;BME280;65;48.778;9.160;2023-07-31T11:00:21;98254.91;;;25.58;42.30
141;BME280;65;48.778;9.160;2023-07-31T11:03:18;98236.50;;;26.82;40.26
141;BME280;65;48.778;9.160;2023-07-31T11:06:06;98234.19;;;26.51;39.86
141;BME280;65;48.778;9.160;2023-07-31T11:08:53;98235.00;;;25.00;43.96
141;BME280;65;48.778;9.160;2023-07-31T11:11:38;98241.38;;;24.55;46.73
141;BME280;65;48.778;9.160;2023-07-31T11:14:24;98234.16;;;24.24;46.95
141;BME280;65;48.778;9.160;2023-07-31T11:17:10;98233.72;;;24.44;45.33
141;BME280;65;48.778;9.160;2023-07-31T11:19:56;98236.06;;;24.62;43.99
141;BME280;65;48.778;9.160;2023-07-31T11:22:41;98224.88;;;24.50;44.04
141;BME280;65;48.778;9.160;2023-07-31T11:25:31;98232.97;;;25.02;42.99
141;BME280;65;48.778;9.160;2023-07-31T11:28:18;98233.88;;;26.60;41.75
141;BME280;65;48.778;9.160;2023-07-31T11:31:04;98227.44;;;27.30;39.21
141;BME280;65;48.778;9.160;2023-07-31T11:33:50;98231.56;;;25.93;42.21
141;BME280;65;48.778;9.160;2023-07-31T11:36:36;98232.91;;;25.46;42.50
141;BME280;65;48.778;9.160;2023-07-31T11:39:21;98238.06;;;25.27;44.94
141;BME280;65;48.778;9.160;2023-07-31T11:42:07;98230.78;;;25.27;43.15
141;BME280;65;48.778;9.160;2023-07-31T11:44:53;98227.81;;;25.94;43.63
141;BME280;65;48.778;9.160;2023-07-31T11:47:39;98224.00;;;25.89;42.37
141;BME280;65;48.778;9.160;2023-07-31T11:50:24;98217.97;;;25.50;43.05
141;BME280;65;48.778;9.160;2023-07-31T11:53:11;98205.16;;;25.59;42.19
141;BME280;65;48.778;9.160;2023-07-31T11:55:59;98206.53;;;24.89;45.09
141;BME280;65;48.778;9.160;2023-07-31T11:58:47;98198.25;;;24.91;44.64
141;BME280;65;48.778;9.160;2023-07-31T12:01:33;98193.28;;;24.95;44.79
141;BME280;65;48.778;9.160;2023-07-31T12:04:20;98179.88;;;24.86;47.57
141;BME280;65;48.778;9.160;2023-07-31T12:07:07;98176.25;;;25.45;46.61
141;BME280;65;48.778;9.160;2023-07-31T12:09:55;98173.88;;;25.57;43.95
141;BME280;65;48.778;9.160;2023-07-31T12:12:41;98180.28;;;25.34;45.07
141;BME280;65;48.778;9.160;2023-07-31T12:15:34;98185.75;;;25.05;44.17
141;BME280;65;48.778;9.160;2023-07-31T12:18:20;98166.72;;;24.39;47.21
141;BME280;65;48.778;9.160;2023-07-31T12:21:08;98173.72;;;24.25;47.62
141;BME280;65;48.778;9.160;2023-07-31T12:23:55;98172.50;;;24.36;46.80
141;BME280;65;48.778;9.160;2023-07-31T12:26:45;98177.53;;;24.39;46.66
141;BME280;65;48.778;9.160;2023-07-31T12:29:35;98167.66;;;24.32;49.38
141;BME280;65;48.778;9.160;2023-07-31T12:32:22;98170.00;;;24.26;49.79
141;BME280;65;48.778;9.160;2023-07-31T12:35:09;98171.06;;;24.03;47.46
141;BME280;65;48.778;9.160;2023-07-31T12:37:55;98164.31;;;23.61;47.67
141;BME280;65;48.778;9.160;2023-07-31T12:40:41;98159.38;;;23.64;46.98
141;BME280;65;48.778;9.160;2023-07-31T12:43:27;98171.41;;;23.31;50.14
141;BME280;65;48.778;9.160;2023-07-31T12:46:13;98154.25;;;23.24;49.10
141;BME280;65;48.778;9.160;2023-07-31T12:48:59;98162.28;;;23.32;49.51
141;BME280;65;48.778;9.160;2023-07-31T12:51:45;98160.25;;;23.34;48.64
141;BME280;65;48.778;9.160;2023-07-31T12:54:31;98146.09;;;23.32;48.35
141;BME280;65;48.778;9.160;2023-07-31T12:57:18;98135.91;;;23.42;48.86
141;BME280;65;48.778;9.160;2023-07-31T13:00:05;98125.97;;;23.65;47.41
141;BME280;65;48.778;9.160;2023-07-31T13:02:52;98126.81;;;23.66;49.84
141;BME280;65;48.778;9.160;2023-07-31T13:05:38;98118.16;;;23.93;48.31
141;BME280;65;48.778;9.160;2023-07-31T13:08:24;98121.53;;;23.95;47.43
141;BME280;65;48.778;9.160;2023-07-31T13:11:09;98118.44;;;23.84;47.61
141;BME280;65;48.778;9.160;2023-07-31T13:13:55;98119.63;;;23.81;47.76
141;BME280;65;48.778;9.160;2023-07-31T13:16:41;98125.09;;;23.73;47.33
141;BME280;65;48.778;9.160;2023-07-31T13:19:26;98114.25;;;23.96;46.39
141;BME280;65;48.778;9.160;2023-07-31T13:22:12;98109.16;;;24.16;47.54
141;BME280;65;48.778;9.160;2023-07-31T13:24:58;98117.16;;;24.47;46.18
141;BME280;65;48.778;9.160;2023-07-31T13:27:44;98108.25;;;24.82;46.59
141;BME280;65;48.778;9.160;2023-07-31T13:30:31;98099.88;;;25.07;47.81
141;BME280;65;48.778;9.160;2023-07-31T13:33:17;98090.88;;;25.64;45.11
141;BME280;65;48.778;9.160;2023-07-31T13:36:02;98086.63;;;25.76;44.36
141;BME280;65;48.778;9.160;2023-07-31T13:38:48;98088.22;;;26.20;44.03
141;BME280;65;48.778;9.160;2023-07-31T13:41:34;98089.03;;;26.48;44.54
141;BME280;65;48.778;9.160;2023-07-31T13:44:20;98087.34;;;26.12;45.80
141;BME280;65;48.778;9.160;2023-07-31T13:47:06;98087.63;;;25.96;43.83
141;BME280;65;48.778;9.160;2023-07-31T13:49:52;98081.59;;;26.01;42.91
141;BME280;65;48.778;9.160;2023-07-31T13:52:38;98079.69;;;25.67;44.65
141;BME280;65;48.778;9.160;2023-07-31T13:55:24;98071.72;;;25.65;43.18
141;BME280;65;48.778;9.160;2023-07-31T13:58:09;98074.78;;;25.56;45.14
141;BME280;65;48.778;9.160;2023-07-31T14:00:55;98067.84;;;25.32;44.23
141;BME280;65;48.778;9.160;2023-07-31T14:03:41;98061.69;;;25.16;45.00
141;BME280;65;48.778;9.160;2023-07-31T14:06:27;98055.75;;;25.06;47.83
141;BME280;65;48.778;9.160;2023-07-31T14:09:12;98058.41;;;25.21;46.83
141;BME280;65;48.778;9.160;2023-07-31T14:11:59;98056.19;;;25.10;45.84
141;BME280;65;48.778;9.160;2023-07-31T14:14:45;98060.44;;;24.98;46.58
141;BME280;65;48.778;9.160;2023-07-31T14:17:31;98058.19;;;25.01;46.88
141;BME280;65;48.778;9.160;2023-07-31T14:20:17;98055.19;;;24.96;47.21
141;BME280;65;48.778;9.160;2023-07-31T14:23:03;98055.69;;;25.00;46.02
141;BME280;65;48.778;9.160;2023-07-31T14:25:49;98052.97;;;24.85;48.26
141;BME280;65;48.778;9.160;2023-07-31T14:28:34;98045.13;;;25.05;46.33
141;BME280;65;48.778;9.160;2023-07-31T14:31:20;98042.03;;;25.29;45.79
141;BME280;65;48.778;9.160;2023-07-31T14:34:06;98044.59;;;25.37;44.94
141;BME280;65;48.778;9.160;2023-07-31T14:36:52;98047.75;;;24.98;47.24
141;BME280;65;48.778;9.160;2023-07-31T14:39:38;98038.13;;;24.96;48.03
141;BME280;65;48.778;9.160;2023-07-31T14:42:25;98032.31;;;25.13;45.63
141;BME280;65;48.778;9.160;2023-07-31T14:45:10;98036.47;;;25.37;45.89
141;BME280;65;48.778;9.160;2023-07-31T14:47:56;98024.13;;;25.49;45.27
141;BME280;65;48.778;9.160;2023-07-31T14:50:42;98027.56;;;25.65;44.18
141;BME280;65;48.778;9.160;2023-07-31T14:53:28;98031.13;;;25.65;44.36
141;BME280;65;48.778;9.160;2023-07-31T14:56:13;98033.91;;;25.72;44.39
141;BME280;65;48.778;9.160;2023-07-31T14:58:59;98031.06;;;25.80;45.53
141;BME280;65;48.778;9.160;2023-07-31T15:01:45;98028.88;;;25.69;43.43
141;BME280;65;48.778;9.160;2023-07-31T15:04:30;98019.22;;;25.60;43.32
141;BME280;65;48.778;9.160;2023-07-31T15:07:16;98016.00;;;25.71;44.28
141;BME280;65;48.778;9.160;2023-07-31T15:10:02;98019.44;;;25.86;44.60
141;BME280;65;48.778;9.160;2023-07-31T15:12:48;98016.13;;;25.91;42.56
141;BME280;65;48.778;9.160;2023-07-31T15:15:34;98023.47;;;25.69;44.51
141;BME280;65;48.778;9.160;2023-07-31T15:18:20;98013.94;;;25.30;43.94
141;BME280;65;48.778;9.160;2023-07-31T15:21:05;98003.16;;;25.37;45.69
141;BME280;65;48.778;9.160;2023-07-31T15:23:52;98004.25;;;25.42;44.66
141;BME280;65;48.778;9.160;2023-07-31T15:26:38;97999.78;;;25.28;44.76
141;BME280;65;48.778;9.160;2023-07-31T15:29:24;97989.97;;;25.27;45.84
141;BME280;65;48.778;9.160;2023-07-31T15:32:10;97988.38;;;25.11;45.09
141;BME280;65;48.778;9.160;2023-07-31T15:34:55;97980.22;;;25.05;45.78
141;BME280;65;48.778;9.160;2023-07-31T15:37:41;97981.50;;;25.09;45.48
141;BME280;65;48.778;9.160;2023-07-31T15:40:27;97973.19;;;25.10;46.97
141;BME280;65;48.778;9.160;2023-07-31T15:43:13;97969.34;;;24.98;45.28
141;BME280;65;48.778;9.160;2023-07-31T15:45:58;97964.91;;;24.76;47.09
141;BME280;65;48.778;9.160;2023-07-31T15:48:44;97951.38;;;24.76;45.75
141;BME280;65;48.778;9.160;2023-07-31T15:51:30;97942.94;;;24.64;46.63
141;BME280;65;48.778;9.160;2023-07-31T15:54:16;97940.25;;;24.64;46.96